Accueil
METAR-TAF:

METAR-TAF

Aéroports :

Sabadell, Espagne

latitude: 41-31N, longitude: 002-06E, altitude: 250 m

Observation

Le bulletin a été fait il y a 18 minutes, à 19:00 UTC
Vent 4 kt de ouest/sud-ouest, variant entre sud/sud-ouest et ouest
Température 18°C
Humidité 73%
Pression 1015 hPa
Visibilité 10 km ou plus

METAR: LELL 261900Z AUTO 25004KT 210V280 9999 NCD 18/13 Q1015

Heure: 21:18 (19:18 UTC)

Prévision

Le bulletin a été fait il y a 5 heures et 18 minutes, à 14:00 UTC
Prévision valable du 26 à 15 UTC au 27 à 15 UTC
Vent 9 kt de sud-est
Visibilité 10 km ou plus
pas de nuages en-dessous de 1500 mètres et pas de cumulonimbus.
Evoluant progressivement
du 26 à 18 UTC au 26 à 20 UTC
Vent 7 kt de ouest
Evoluant progressivement
du 27 à 11 UTC au 27 à 13 UTC
Vent 12 kt de sud

TAF: LELL 261400Z 2615/2715 13009KT CAVOK TX26/2713Z TN11/2706Z BECMG 2618/2620 26007KT BECMG 2711/2713 17012KT

Observations et prévisions météorologiques de plus de 4000 aéroports (messages METAR et TAF).

Les stations disponibles sont représentées par des disques jaunes et rouges sur la carte.

Passer la souris dessus pour voir le nom de la station.

Cliquer dessus pour voir les observations et prévisions météorologiques.

Pour changer de carte: cliquez sur les boutons verts avec une croix noire pour zoomer, sur le bouton vert avec un tiret pour effectuer un zoom arrière, ou sur les flèches vertes pour les cartes adjacentes.


METAR-TAF: